createdAt,value
2018-01-25T00:00:23.156Z,11.5
2018-01-25T00:01:25.662Z,11.5
2018-01-25T00:02:28.440Z,11.5
2018-01-25T00:03:30.940Z,11.4
2018-01-25T00:04:33.441Z,11.5
2018-01-25T00:05:35.943Z,11.5
2018-01-25T00:06:38.735Z,11.5
2018-01-25T00:07:41.235Z,11.5
2018-01-25T00:08:43.726Z,11.5
2018-01-25T00:09:46.239Z,11.5
2018-01-25T00:10:49.031Z,11.5
2018-01-25T00:11:51.518Z,11.5
2018-01-25T00:12:54.024Z,11.5
2018-01-25T00:13:56.525Z,11.5
2018-01-25T00:14:59.026Z,11.5
2018-01-25T00:16:01.816Z,11.5
2018-01-25T00:17:04.308Z,11.5
2018-01-25T00:18:06.807Z,11.5
2018-01-25T00:19:09.615Z,11.5
2018-01-25T00:20:12.100Z,11.5
2018-01-25T00:21:14.895Z,11.5
2018-01-25T00:22:17.697Z,11.5
2018-01-25T00:23:20.200Z,11.4
2018-01-25T00:24:22.699Z,11.4
2018-01-25T00:25:25.201Z,11.4
2018-01-25T00:26:27.719Z,11.4
2018-01-25T00:27:30.541Z,11.4
2018-01-25T00:28:33.048Z,11.4
2018-01-25T00:29:35.845Z,11.4
2018-01-25T00:30:38.341Z,11.4
2018-01-25T00:31:40.843Z,11.4
2018-01-25T00:32:43.347Z,11.4
2018-01-25T00:33:45.841Z,11.4
2018-01-25T00:34:48.341Z,11.4
2018-01-25T00:35:51.134Z,11.4
2018-01-25T00:36:53.636Z,11.4
2018-01-25T00:37:56.141Z,11.4
2018-01-25T00:38:59.215Z,11.3
2018-01-25T00:40:01.706Z,11
2018-01-25T00:41:04.214Z,10.9
2018-01-25T00:42:06.707Z,10.8
2018-01-25T00:43:09.215Z,10.6
2018-01-25T00:44:11.993Z,10.2
2018-01-25T00:45:14.773Z,9.9
2018-01-25T00:46:17.271Z,9.8
2018-01-25T00:47:19.774Z,9.8
2018-01-25T00:48:22.553Z,9.7
2018-01-25T00:49:25.060Z,9.7
2018-01-25T00:50:27.557Z,9.5
2018-01-25T00:51:30.051Z,9.5
2018-01-25T00:52:32.836Z,9.3
2018-01-25T00:53:35.333Z,9.3
2018-01-25T00:54:37.842Z,9.2
2018-01-25T00:55:40.634Z,9.3
2018-01-25T00:56:43.130Z,9.2
2018-01-25T00:57:45.629Z,9
2018-01-25T00:58:48.133Z,9.1
2018-01-25T00:59:50.627Z,9
2018-01-25T01:00:53.135Z,8.9
2018-01-25T01:01:55.908Z,8.9
2018-01-25T01:02:58.415Z,8.9
2018-01-25T01:04:01.196Z,8.9
2018-01-25T01:05:03.704Z,8.8
2018-01-25T01:06:06.480Z,8.8
2018-01-25T01:07:08.981Z,8.8
2018-01-25T01:08:11.471Z,8.8
2018-01-25T01:09:13.979Z,8.8
2018-01-25T01:10:16.477Z,8.8
2018-01-25T01:11:18.967Z,8.8
2018-01-25T01:12:21.463Z,8.8
2018-01-25T01:13:23.964Z,8.7
2018-01-25T01:14:26.463Z,8.6
2018-01-25T01:15:28.965Z,8.6
2018-01-25T01:16:31.447Z,8.6
2018-01-25T01:17:33.949Z,8.6
2018-01-25T01:18:36.436Z,8.6
2018-01-25T01:19:38.941Z,8.5
2018-01-25T01:20:41.731Z,8.5
2018-01-25T01:21:44.225Z,8.5
2018-01-25T01:22:46.724Z,8.5
2018-01-25T01:23:49.219Z,8.5
2018-01-25T01:24:51.712Z,8.5
2018-01-25T01:25:54.231Z,8.5
2018-01-25T01:26:56.712Z,8.5
2018-01-25T01:27:59.216Z,8.4
2018-01-25T01:29:02.000Z,8.4
2018-01-25T01:30:04.497Z,8.4
2018-01-25T01:31:06.996Z,8.4
2018-01-25T01:32:09.503Z,8.3
2018-01-25T01:33:12.277Z,8.3
2018-01-25T01:34:14.785Z,8.3
2018-01-25T01:35:17.573Z,8.4
2018-01-25T01:36:20.075Z,8.3
2018-01-25T01:37:22.576Z,8.3
2018-01-25T01:38:25.071Z,8.3
2018-01-25T01:39:27.566Z,8.3
2018-01-25T01:40:30.075Z,8.3
2018-01-25T01:41:32.576Z,8.3
2018-01-25T01:42:35.365Z,8.3
2018-01-25T01:43:37.860Z,8.3
2018-01-25T01:44:40.651Z,8.3
2018-01-25T01:45:43.142Z,8.3
2018-01-25T01:46:45.654Z,8.2
2018-01-25T01:47:48.134Z,8.2
2018-01-25T01:48:50.631Z,8.2
2018-01-25T01:49:53.144Z,8.2
2018-01-25T01:50:55.638Z,8.2
2018-01-25T01:51:58.125Z,8.2
2018-01-25T01:53:00.625Z,8.2
2018-01-25T01:54:03.111Z,8.2
2018-01-25T01:55:05.898Z,8.2
2018-01-25T01:56:08.392Z,8.2
2018-01-25T01:57:10.883Z,8.2
2018-01-25T01:58:13.673Z,8.2
2018-01-25T01:59:16.182Z,8.1
2018-01-25T02:00:18.680Z,8.1
2018-01-25T02:01:21.475Z,8.1
2018-01-25T02:02:23.976Z,8.1
2018-01-25T02:03:26.468Z,8.2
2018-01-25T02:04:28.981Z,8.1
2018-01-25T02:05:31.478Z,8.1
2018-01-25T02:06:33.967Z,8.1
2018-01-25T02:07:36.463Z,8.1
2018-01-25T02:08:38.967Z,8.1
2018-01-25T02:09:41.490Z,8.1
2018-01-25T02:10:43.958Z,8.1
2018-01-25T02:11:46.729Z,8.1
2018-01-25T02:12:49.224Z,8.1
2018-01-25T02:13:52.031Z,8.1
2018-01-25T02:14:54.528Z,8.1
2018-01-25T02:15:57.305Z,8
2018-01-25T02:16:59.808Z,8
2018-01-25T02:18:02.592Z,8
2018-01-25T02:19:05.091Z,8
2018-01-25T02:20:07.585Z,8
2018-01-25T02:21:10.082Z,8
2018-01-25T02:22:12.570Z,8
2018-01-25T02:23:15.083Z,8
2018-01-25T02:24:17.576Z,8
2018-01-25T02:25:20.057Z,8
2018-01-25T02:26:22.732Z,8
2018-01-25T02:27:29.375Z,8
2018-01-25T02:31:32.446Z,8.1
2018-01-25T02:33:33.147Z,8.1
2018-01-25T02:37:18.891Z,8.1
2018-01-25T02:40:11.496Z,8.1
2018-01-25T02:41:15.039Z,8
2018-01-25T02:42:26.031Z,8
2018-01-25T02:44:35.300Z,7.9
2018-01-25T02:45:43.657Z,8
2018-01-25T02:47:54.898Z,8
2018-01-25T02:48:57.921Z,7.9
2018-01-25T03:02:37.101Z,8
2018-01-25T03:04:25.426Z,8
2018-01-25T03:05:27.923Z,8
2018-01-25T03:06:30.421Z,7.9
2018-01-25T03:07:32.920Z,7.9
2018-01-25T03:08:35.416Z,7.9
2018-01-25T03:09:37.901Z,7.9
2018-01-25T03:10:40.695Z,7.8
2018-01-25T03:11:43.203Z,7.8
2018-01-25T03:12:45.693Z,7.8
2018-01-25T03:13:48.192Z,7.8
2018-01-25T03:14:50.680Z,7.8
2018-01-25T03:15:53.200Z,7.8
2018-01-25T03:16:55.693Z,7.8
2018-01-25T03:17:58.190Z,7.8
2018-01-25T03:19:00.693Z,7.8
2018-01-25T03:20:03.186Z,7.8
2018-01-25T03:21:05.974Z,7.8
2018-01-25T03:22:08.478Z,7.8
2018-01-25T03:23:10.961Z,7.8
2018-01-25T03:24:13.453Z,7.8
2018-01-25T03:25:15.947Z,7.8
2018-01-25T03:26:18.449Z,7.8
2018-01-25T03:27:20.946Z,7.8
2018-01-25T03:28:23.439Z,7.8
2018-01-25T03:29:25.936Z,7.8
2018-01-25T03:30:28.440Z,7.8
2018-01-25T03:31:30.952Z,7.8
2018-01-25T03:32:33.446Z,7.8
2018-01-25T03:33:35.945Z,7.8
2018-01-25T03:34:38.443Z,7.8
2018-01-25T03:35:41.279Z,7.8
2018-01-25T03:36:43.872Z,7.8
2018-01-25T03:37:46.728Z,7.8
2018-01-25T17:52:31.638Z,7.4
2018-01-25T17:55:25.268Z,7.4
2018-01-25T17:56:28.410Z,7.4
2018-01-25T17:57:31.356Z,7.3
2018-01-25T17:58:34.141Z,7.3
2018-01-25T17:59:37.866Z,7.3
2018-01-25T18:00:40.980Z,7.3
2018-01-25T18:01:44.531Z,7.3
2018-01-25T18:02:48.538Z,7.3
2018-01-25T18:03:51.515Z,7.3
2018-01-25T18:04:54.324Z,7.3
2018-01-25T18:05:57.480Z,7.3
2018-01-25T18:07:00.289Z,7.3
2018-01-25T18:08:03.303Z,7.3
2018-01-25T18:09:05.974Z,7.3
2018-01-25T18:10:08.669Z,7.3
2018-01-25T18:11:11.469Z,7.3
2018-01-25T18:12:14.652Z,7.3
2018-01-25T18:13:17.325Z,7.3
2018-01-25T18:14:20.088Z,7.3
2018-01-25T18:15:23.361Z,7.3
2018-01-25T18:16:26.489Z,7.3
2018-01-25T18:17:30.081Z,7.3
2018-01-25T18:18:33.279Z,7.3
2018-01-25T18:19:37.554Z,7.2
2018-01-25T18:20:41.066Z,7.2
2018-01-25T18:21:46.136Z,7.3
2018-01-25T18:22:49.410Z,7.2
2018-01-25T18:23:52.753Z,7.3
2018-01-25T18:24:56.274Z,7.2
2018-01-25T18:25:59.600Z,7.2
2018-01-25T18:27:39.510Z,7.3
2018-01-25T18:29:04.341Z,7.2
2018-01-25T18:30:45.097Z,7.2
2018-01-25T18:32:35.783Z,7.3
2018-01-25T18:34:13.350Z,7.3
2018-01-25T18:36:47.878Z,7.3
2018-01-25T18:38:03.180Z,7.2
2018-01-25T18:39:05.957Z,7.2
2018-01-25T18:40:08.468Z,7.2
2018-01-25T18:41:10.996Z,7.2
2018-01-25T18:42:13.786Z,7.1
2018-01-25T18:43:16.294Z,7.1
2018-01-25T18:44:18.784Z,7.1
2018-01-25T18:45:21.591Z,7.1
2018-01-25T18:46:24.123Z,7.2
2018-01-25T18:47:26.617Z,7.1
2018-01-25T18:48:29.146Z,7.1
2018-01-25T18:49:31.944Z,7.1
2018-01-25T18:50:34.445Z,7.1
2018-01-25T18:51:36.965Z,7.1
2018-01-25T18:52:39.477Z,7.1
2018-01-25T18:53:41.968Z,7.1
2018-01-25T18:54:44.488Z,7.1
2018-01-25T18:55:47.012Z,7.1
2018-01-25T18:56:49.788Z,7.1
2018-01-25T18:57:52.291Z,7.1
2018-01-25T18:58:54.799Z,7.1
2018-01-25T18:59:57.313Z,7.1
2018-01-25T19:00:59.821Z,7.1
2018-01-25T19:02:02.929Z,7.1
2018-01-25T19:03:05.447Z,7.1
2018-01-25T19:04:07.951Z,7.1
2018-01-25T19:05:10.436Z,7.1
2018-01-25T19:06:12.940Z,7.1
2018-01-25T19:07:15.454Z,7
2018-01-25T19:08:18.235Z,7
2018-01-25T19:09:20.722Z,7
2018-01-25T19:10:23.219Z,7
2018-01-25T19:11:25.713Z,7
2018-01-25T19:12:28.231Z,7
2018-01-25T19:13:30.715Z,7
2018-01-25T19:14:33.210Z,7
2018-01-25T19:15:35.708Z,7
2018-01-25T19:16:38.204Z,6.9
2018-01-25T19:17:40.707Z,7
2018-01-25T19:18:43.210Z,7
2018-01-25T19:19:45.684Z,6.9
2018-01-25T19:20:48.186Z,6.9
2018-01-25T19:21:50.683Z,6.9
2018-01-25T19:22:53.195Z,6.9
2018-01-25T19:23:55.674Z,6.9
2018-01-25T19:24:58.165Z,6.9
2018-01-25T19:26:00.657Z,6.9
2018-01-25T19:27:03.454Z,6.9
2018-01-25T19:28:05.946Z,6.9
2018-01-25T19:29:08.718Z,6.9
2018-01-25T19:30:11.231Z,6.9
2018-01-25T19:31:13.725Z,6.8
2018-01-25T19:32:16.218Z,6.8
2018-01-25T19:33:18.709Z,6.8
2018-01-25T19:34:21.208Z,6.8
2018-01-25T19:35:23.700Z,6.9
2018-01-25T19:36:26.209Z,6.9
2018-01-25T19:37:28.698Z,6.8
2018-01-25T19:38:31.477Z,6.8
2018-01-25T19:39:33.972Z,6.8
2018-01-25T19:40:36.476Z,6.8
2018-01-25T19:41:38.978Z,6.8
2018-01-25T19:42:41.473Z,6.8
2018-01-25T19:43:44.239Z,6.8
2018-01-25T19:44:46.738Z,6.8
2018-01-25T19:45:49.241Z,6.8
2018-01-25T19:46:51.736Z,6.8
2018-01-25T19:47:54.228Z,6.8
2018-01-25T19:48:57.011Z,6.8
2018-01-25T19:49:59.504Z,6.8
2018-01-25T19:51:02.007Z,6.8
2018-01-25T19:52:04.503Z,6.8
2018-01-25T19:53:06.997Z,6.8
2018-01-25T19:54:09.482Z,6.8
2018-01-25T19:55:12.032Z,6.8
2018-01-25T19:56:14.480Z,6.8
2018-01-25T19:57:16.967Z,6.8
2018-01-25T19:58:19.764Z,6.8
2018-01-25T19:59:22.264Z,6.8
2018-01-25T20:00:24.750Z,6.8
2018-01-25T20:01:27.236Z,6.8
2018-01-25T20:02:29.739Z,6.8
2018-01-25T20:03:32.231Z,6.8
2018-01-25T20:04:35.010Z,6.8
2018-01-25T20:05:37.507Z,6.8
2018-01-25T20:06:39.999Z,6.8
2018-01-25T20:07:42.505Z,6.8
2018-01-25T20:08:45.014Z,6.8
2018-01-25T20:09:47.489Z,6.8
2018-01-25T20:10:49.989Z,6.8
2018-01-25T20:11:52.493Z,6.8
2018-01-25T20:12:54.992Z,6.8
2018-01-25T20:13:57.486Z,6.8
2018-01-25T20:14:59.994Z,6.8
2018-01-25T20:16:02.489Z,6.8
2018-01-25T20:17:04.986Z,6.7
2018-01-25T20:18:07.485Z,6.8
2018-01-25T20:19:09.966Z,6.8
2018-01-25T20:20:12.474Z,6.8
2018-01-25T20:21:14.968Z,6.8
2018-01-25T20:22:17.471Z,6.7
2018-01-25T20:23:19.976Z,6.8
2018-01-25T20:24:22.473Z,6.8
2018-01-25T20:25:24.968Z,6.7
2018-01-25T20:26:27.474Z,6.8
2018-01-25T20:27:30.252Z,6.7
2018-01-25T20:28:32.741Z,6.8
2018-01-25T20:29:35.240Z,6.8
2018-01-25T20:30:37.736Z,6.8
2018-01-25T20:31:40.228Z,6.8
2018-01-25T20:32:42.715Z,6.8
2018-01-25T20:33:45.222Z,6.8
2018-01-25T20:34:47.993Z,6.7
2018-01-25T20:35:50.502Z,6.7
2018-01-25T20:36:53.281Z,6.7
2018-01-25T20:37:56.098Z,6.7
2018-01-25T20:38:58.562Z,6.7
2018-01-25T20:40:01.382Z,6.7
2018-01-25T20:41:03.867Z,6.7
2018-01-25T20:42:06.376Z,6.7
2018-01-25T20:43:08.866Z,6.7
2018-01-25T20:44:11.371Z,6.7
2018-01-25T20:45:13.868Z,6.7
2018-01-25T20:46:16.368Z,6.7
2018-01-25T20:47:18.852Z,6.7
2018-01-25T20:48:21.378Z,6.7
2018-01-25T20:49:23.841Z,6.7
2018-01-25T20:50:26.336Z,6.6
2018-01-25T20:51:28.824Z,6.6
2018-01-25T20:52:31.325Z,6.7
2018-01-25T20:53:33.813Z,6.6
2018-01-25T20:54:36.320Z,6.6
2018-01-25T20:55:38.808Z,6.6
2018-01-25T20:56:41.299Z,6.6
2018-01-25T20:57:44.108Z,6.6
2018-01-25T20:58:46.892Z,6.6
2018-01-25T20:59:49.381Z,6.6
2018-01-25T21:00:51.878Z,6.6
2018-01-25T21:01:54.664Z,6.5
2018-01-25T21:02:57.158Z,6.5
2018-01-25T21:03:59.647Z,6.5
2018-01-25T21:05:02.472Z,6.5
2018-01-25T21:06:04.979Z,6.5
2018-01-25T21:07:07.484Z,6.5
2018-01-25T21:08:09.971Z,6.5
2018-01-25T21:09:12.464Z,6.5
2018-01-25T21:10:14.971Z,6.4
2018-01-25T21:11:17.467Z,6.5
2018-01-25T21:12:19.959Z,6.5
2018-01-25T21:13:22.457Z,6.5
2018-01-25T21:14:24.960Z,6.5
2018-01-25T21:15:27.737Z,6.5
2018-01-25T21:16:30.237Z,6.4
2018-01-25T21:17:32.741Z,6.5
2018-01-25T21:18:35.215Z,6.4
2018-01-25T21:19:37.730Z,6.4
2018-01-25T21:20:40.217Z,6.5
2018-01-25T21:21:43.023Z,6.5
2018-01-25T21:22:45.516Z,6.5
2018-01-25T21:23:48.015Z,6.4
2018-01-25T21:24:50.506Z,6.4
2018-01-25T21:25:53.014Z,6.4
2018-01-25T21:26:55.505Z,6.4
2018-01-25T21:27:57.992Z,6.4
2018-01-25T21:29:00.493Z,6.4
2018-01-25T21:30:02.990Z,6.4
2018-01-25T21:31:05.475Z,6.4
2018-01-25T21:32:07.983Z,6.4
2018-01-25T21:33:10.477Z,6.4
2018-01-25T21:34:12.971Z,6.4
2018-01-25T21:35:15.467Z,6.3
2018-01-25T21:36:17.965Z,6.4
2018-01-25T21:37:20.468Z,6.4
2018-01-25T21:38:22.963Z,6.4
2018-01-25T21:39:25.454Z,6.4
2018-01-25T21:40:27.948Z,6.4
2018-01-25T21:41:30.450Z,6.3
2018-01-25T21:42:32.930Z,6.3
2018-01-25T21:43:35.429Z,6.3
2018-01-25T21:44:37.940Z,6.3
2018-01-25T21:45:40.441Z,6.3
2018-01-25T21:46:42.940Z,6.4
2018-01-25T21:47:45.742Z,6.3
2018-01-25T21:48:48.832Z,6.3
2018-01-25T21:49:51.339Z,6.3
2018-01-25T21:50:54.119Z,6.3
2018-01-25T21:51:56.602Z,6.3
2018-01-25T21:52:59.093Z,6.3
2018-01-25T21:54:01.593Z,6.3
2018-01-25T21:55:04.084Z,6.3
2018-01-25T21:56:06.594Z,6.3
2018-01-25T21:57:09.646Z,6.3
2018-01-25T21:58:12.463Z,6.2
2018-01-25T21:59:15.258Z,6.2
2018-01-25T22:00:17.755Z,6.2
2018-01-25T22:01:20.249Z,6.2
2018-01-25T22:02:22.742Z,6.2
2018-01-25T22:03:25.234Z,6.2
2018-01-25T22:04:27.730Z,6.2
2018-01-25T22:05:30.216Z,6.2
2018-01-25T22:06:32.718Z,6.2
2018-01-25T22:07:35.203Z,6.2
2018-01-25T22:08:37.708Z,6.2
2018-01-25T22:09:40.206Z,6.2
2018-01-25T22:10:42.696Z,6.2
2018-01-25T22:11:45.194Z,6.1
2018-01-25T22:12:47.690Z,6.1
2018-01-25T22:13:50.185Z,6.1
2018-01-25T22:14:52.991Z,6.1
2018-01-25T22:15:55.464Z,6.1
2018-01-25T22:16:57.961Z,6.1
2018-01-25T22:18:00.471Z,6.2
2018-01-25T22:19:02.959Z,6.2
2018-01-25T22:20:05.456Z,6.2
2018-01-25T22:21:07.956Z,6.2
2018-01-25T22:22:10.446Z,6.2
2018-01-25T22:23:12.954Z,6.1
2018-01-25T22:24:15.452Z,6.1
2018-01-25T22:25:17.928Z,6.1
2018-01-25T22:26:20.433Z,6.1
2018-01-25T22:27:22.927Z,6.1
2018-01-25T22:28:25.449Z,6.1
2018-01-25T22:29:27.912Z,6.1
2018-01-25T22:30:30.725Z,6.1
2018-01-25T22:31:33.215Z,6.1
2018-01-25T22:32:35.695Z,6.1
2018-01-25T22:33:38.192Z,6.1
2018-01-25T22:34:40.684Z,6.1
2018-01-25T22:35:43.181Z,6.1
2018-01-25T22:36:45.699Z,6.1
2018-01-25T22:37:48.166Z,6.1
2018-01-25T22:38:50.664Z,6.1
2018-01-25T22:39:53.173Z,6.1
2018-01-25T22:40:55.671Z,6
2018-01-25T22:41:58.166Z,6
2018-01-25T22:43:00.661Z,6
2018-01-25T22:44:03.153Z,6
2018-01-25T22:45:05.652Z,6
2018-01-25T22:46:08.144Z,6
2018-01-25T22:47:10.637Z,6
2018-01-25T22:48:13.135Z,6
2018-01-25T22:49:15.623Z,5.9
2018-01-25T22:50:18.120Z,6
2018-01-25T22:51:20.632Z,6
2018-01-25T22:52:23.117Z,6
2018-01-25T22:53:25.899Z,6
2018-01-25T22:54:28.387Z,6
2018-01-25T22:55:30.898Z,6
2018-01-25T22:56:33.368Z,6.1
2018-01-25T22:57:35.869Z,6.1
2018-01-25T22:58:38.373Z,6.1
2018-01-25T22:59:40.861Z,6.1
2018-01-25T23:00:43.367Z,6.2
2018-01-25T23:01:45.862Z,6.2
2018-01-25T23:02:48.348Z,6.2
2018-01-25T23:03:50.858Z,6.2
2018-01-25T23:04:53.353Z,6.2
2018-01-25T23:05:55.840Z,6.2
2018-01-25T23:06:58.337Z,6.2
2018-01-25T23:08:00.830Z,6.2
2018-01-25T23:09:03.612Z,6.2
2018-01-25T23:10:06.115Z,6.2
2018-01-25T23:11:08.897Z,6.2
2018-01-25T23:12:11.395Z,6.2
2018-01-25T23:13:13.904Z,6.2
2018-01-25T23:14:16.389Z,6.3
2018-01-25T23:15:18.869Z,6.3
2018-01-25T23:16:21.373Z,6.2
2018-01-25T23:17:23.864Z,6.2
2018-01-25T23:18:26.351Z,6.2
2018-01-25T23:19:28.847Z,6.3
2018-01-25T23:20:31.344Z,6.3
2018-01-25T23:21:34.123Z,6.3
2018-01-25T23:22:36.636Z,6.3
2018-01-25T23:23:39.119Z,6.3
2018-01-25T23:24:41.616Z,6.3
2018-01-25T23:25:44.108Z,6.3
2018-01-25T23:26:46.606Z,6.3
2018-01-25T23:27:49.092Z,6.3
2018-01-25T23:28:51.891Z,6.3
2018-01-25T23:29:54.387Z,6.3
2018-01-25T23:30:56.881Z,6.3
2018-01-25T23:31:59.370Z,6.3
2018-01-25T23:33:01.876Z,6.3
2018-01-25T23:34:04.367Z,6.3
2018-01-25T23:35:06.866Z,6.3
2018-01-25T23:36:09.657Z,6.3
2018-01-25T23:37:12.448Z,6.3
2018-01-25T23:38:14.933Z,6.3
2018-01-25T23:39:17.439Z,6.3
2018-01-25T23:40:19.922Z,6.3
2018-01-25T23:41:22.435Z,6.3
2018-01-25T23:42:24.928Z,6.3
2018-01-25T23:43:27.417Z,6.3
2018-01-25T23:44:29.917Z,6.3
2018-01-25T23:45:32.411Z,6.3
2018-01-25T23:46:34.897Z,6.3
2018-01-25T23:47:37.405Z,6.3
2018-01-25T23:48:39.875Z,6.3
2018-01-25T23:49:42.375Z,6.3
2018-01-25T23:50:44.880Z,6.3
2018-01-25T23:51:47.378Z,6.3
2018-01-25T23:52:49.877Z,6.3
2018-01-25T23:53:52.370Z,6.3
2018-01-25T23:54:54.858Z,6.3
2018-01-25T23:55:57.361Z,6.3
2018-01-25T23:56:59.848Z,6.3
2018-01-25T23:58:02.343Z,6.3
2018-01-25T23:59:04.841Z,6.3
